Desoto, Texas
Current Conditions -  °F | °C
As of 11:53 AM on Friday 28 Nov 2014 (Local Time) from KRBD Reporting Station
Clear Clear  
Wind Chill: 65°   Ceiling: Unl
Heat Index: 65°   Visibility: 10mi
Dew Point: 49°   Wind: 13mph
Humidity: 56%   Direction: 210°SSW
Pressure: 30.16"   Gusts: 30mph
Location:  32.59°N, 96.86°W
Report Text: KRBD 281753Z 21011G26KT 10SM CLR 18/09 A3016 RMK AO2 PK WND 19026/1721 SLP210 T01830094 10183 20067 58028
Loading
Personal Weather Stations






























Interactive Weather Map New forecast layout! Learn more

10-Day Weather Forecast

Advertisements
Track Severe Weather on mobile